Time;durP1;ratioP1;P1;durP2;ratioP2;P2;SDS_P1;SDS_P2;PMS_P1;PMS_P2;Temp;Humidity;BMP_temperature;BMP_pressure;BME280_temperature;BME280_humidity;BME280_pressure;Samples;Min_cycle;Max_cycle;Signal;HPM_P1;HPM_P2
2022/09/30 00:00:41;;;;;;;22.93;6.73;;;;;;;16.44;81.96;100011.81;5143759;27;20320;-63
2022/09/30 00:03:14;;;;;;;27.90;7.27;;;;;;;16.56;81.57;100008.63;5095117;27;20582;-62
2022/09/30 00:06:03;;;;;;;28.98;7.68;;;;;;;16.51;81.15;100018.53;5144975;27;20304;-62
2022/09/30 00:08:53;;;;;;;23.93;6.33;;;;;;;16.55;81.27;100004.28;5145765;27;20258;-62
2022/09/30 00:11:44;;;;;;;19.10;6.30;;;;;;;16.63;81.15;99996.88;5144474;27;20361;-61
2022/09/30 00:14:26;;;;;;;21.53;6.50;;;;;;;16.61;81.31;99988.19;5111523;27;20639;-62
2022/09/30 00:17:27;;;;;;;30.90;8.10;;;;;;;16.64;81.49;99977.47;5144454;27;20280;-62
2022/09/30 00:20:09;;;;;;;27.70;7.53;;;;;;;16.66;81.46;99965.06;5112364;28;20301;-62
2022/09/30 00:22:51;;;;;;;31.13;7.67;;;;;;;16.74;81.79;99957.66;5123512;28;20286;-63
2022/09/30 00:25:45;;;;;;;29.17;7.17;;;;;;;16.79;81.54;99966.25;5071772;28;20312;-62
2022/09/30 00:28:36;;;;;;;32.23;8.37;;;;;;;16.87;81.69;99957.13;5104107;28;20328;-61
2022/09/30 00:31:21;;;;;;;26.53;7.30;;;;;;;16.78;81.26;99954.00;5041104;28;20301;-61
2022/09/30 00:34:10;;;;;;;34.43;7.30;;;;;;;16.87;81.59;99962.41;5103610;28;20671;-61
2022/09/30 00:37:14;;;;;;;26.70;7.33;;;;;;;16.99;80.78;99945.97;5104351;28;20300;-62
2022/09/30 00:40:09;;;;;;;31.47;7.77;;;;;;;16.99;80.57;99940.69;5069077;28;20286;-63
2022/09/30 00:42:46;;;;;;;21.87;7.10;;;;;;;17.05;81.09;99935.13;5104213;28;20291;-63
2022/09/30 00:45:31;;;;;;;24.13;7.30;;;;;;;17.21;79.96;99936.09;5103644;28;20388;-62
2022/09/30 00:48:24;;;;;;;28.00;7.63;;;;;;;17.25;80.21;99924.47;5103842;28;20111;-63
2022/09/30 00:51:10;;;;;;;17.07;7.10;;;;;;;17.28;79.93;99925.25;5103512;28;20639;-62
2022/09/30 00:54:04;;;;;;;41.13;9.00;;;;;;;17.27;80.35;99934.06;5104344;28;20316;-65
2022/09/30 00:57:05;;;;;;;23.43;7.83;;;;;;;17.24;81.05;99938.56;5103889;28;20040;-63
2022/09/30 00:59:53;;;;;;;23.60;8.17;;;;;;;16.98;81.07;99880.94;5103919;28;20274;-64
2022/09/30 01:02:40;;;;;;;26.42;8.15;;;;;;;17.32;80.97;99932.91;5103611;28;20293;-62
2022/09/30 01:05:14;;;;;;;60.17;9.60;;;;;;;17.52;80.95;99934.56;5103747;28;20048;-63
2022/09/30 01:07:59;;;;;;;28.37;8.03;;;;;;;17.68;80.95;99935.50;5103399;28;20336;-62
2022/09/30 01:10:50;;;;;;;21.77;7.83;;;;;;;17.82;80.94;99936.59;5103883;28;20314;-63
2022/09/30 01:13:50;;;;;;;29.20;8.10;;;;;;;18.02;80.93;99928.53;5086516;28;20326;-62
2022/09/30 01:16:59;;;;;;;36.23;8.73;;;;;;;18.11;79.69;99922.72;5068552;28;20662;-62
2022/09/30 01:20:18;;;;;;;22.63;7.90;;;;;;;18.16;79.20;99908.41;5087499;28;20557;-61
2022/09/30 01:23:28;;;;;;;;;;;;;;;;;;;;;
2022/09/30 01:26:40;;;;;;;56.60;9.50;;;;;;;18.43;78.13;99904.28;5057765;28;20405;-63
2022/09/30 01:30:18;;;;;;;27.40;9.13;;;;;;;18.37;77.67;99864.94;5102311;28;20282;-63
2022/09/30 01:33:29;;;;;;;24.33;8.70;;;;;;;18.53;76.76;99849.91;5038968;28;20296;-63
2022/09/30 01:36:22;;;;;;;18.37;7.67;;;;;;;18.77;76.64;99872.47;5040513;28;20288;-63
2022/09/30 01:39:13;;;;;;;23.90;8.30;;;;;;;18.90;76.35;99861.09;5035503;28;20291;-64
2022/09/30 01:42:01;;;;;;;23.97;7.83;;;;;;;19.08;76.05;99871.59;4975007;28;20300;-62
2022/09/30 01:44:51;;;;;;;18.33;8.40;;;;;;;19.22;75.10;99863.69;5040899;28;20624;-64
2022/09/30 01:47:49;;;;;;;21.17;8.87;;;;;;;19.35;74.89;99864.66;5039053;28;20342;-65
2022/09/30 01:50:48;;;;;;;25.87;8.97;;;;;;;19.48;74.47;99853.34;5042616;28;20276;-61
2022/09/30 01:53:44;;;;;;;24.73;9.50;;;;;;;19.58;73.53;99851.84;5042059;28;20418;-63
2022/09/30 01:57:03;;;;;;;23.23;9.80;;;;;;;19.64;73.80;99843.50;5038704;28;20489;-65
2022/09/30 01:59:46;;;;;;;24.93;8.83;;;;;;;19.91;73.80;99845.47;5041243;28;20360;-62
2022/09/30 02:02:32;;;;;;;97.57;12.90;;;;;;;20.13;73.24;99840.53;5040645;28;20284;-64
2022/09/30 02:05:12;;;;;;;22.30;10.23;;;;;;;19.87;72.25;99782.97;5041494;28;20300;-63
2022/09/30 02:07:51;;;;;;;28.97;11.67;;;;;;;20.20;72.10;99831.25;5048958;28;21326;-63
2022/09/30 02:10:48;;;;;;;24.93;11.33;;;;;;;20.43;71.29;99863.41;5104705;28;20297;-63
2022/09/30 02:13:53;;;;;;;27.80;11.77;;;;;;;20.55;70.91;99841.44;5087854;28;20293;-62
2022/09/30 02:16:45;;;;;;;24.77;11.83;;;;;;;20.51;70.81;99823.97;5074566;28;20298;-62
2022/09/30 02:19:40;;;;;;;153.33;20.47;;;;;;;20.61;71.41;99818.94;5104231;28;20282;-65
2022/09/30 02:22:41;;;;;;;30.67;13.30;;;;;;;20.64;70.62;99811.66;5103367;28;20324;-63
2022/09/30 02:25:38;;;;;;;28.53;12.80;;;;;;;20.70;71.09;99820.16;5109968;27;20288;-63
2022/09/30 02:31:35;;;;;;;26.87;12.23;;;;;;;20.76;71.11;99801.16;5091231;27;20277;-64
2022/09/30 02:34:13;;;;;;;29.47;12.93;;;;;;;20.78;70.23;99825.81;5144803;27;20277;-62
2022/09/30 02:37:11;;;;;;;46.27;14.23;;;;;;;20.81;70.38;99805.22;5088928;27;20407;-64
2022/09/30 02:39:54;;;;;;;37.17;14.50;;;;;;;20.79;70.34;99806.25;5144453;27;20295;-65
2022/09/30 02:43:02;;;;;;;25.37;13.50;;;;;;;20.71;71.22;99776.72;5136758;27;20496;-66
2022/09/30 02:46:02;;;;;;;38.43;14.30;;;;;;;20.86;70.61;99781.00;5143510;27;20289;-64
2022/09/30 02:48:49;;;;;;;30.00;13.47;;;;;;;20.87;70.77;99777.41;5144762;27;20341;-63
2022/09/30 02:51:43;;;;;;;29.77;13.77;;;;;;;20.93;70.68;99760.22;5144363;27;20345;-64
2022/09/30 02:54:46;;;;;;;29.53;12.70;;;;;;;20.97;70.39;99773.19;5144034;27;20377;-64
2022/09/30 02:57:39;;;;;;;40.93;13.73;;;;;;;20.99;70.22;99757.13;5142747;27;20304;-64
2022/09/30 03:01:01;;;;;;;52.40;14.93;;;;;;;21.02;70.55;99749.81;5143301;27;20319;-65
2022/09/30 03:03:48;;;;;;;32.27;15.20;;;;;;;21.04;70.45;99731.97;5145028;27;20284;-62
2022/09/30 03:06:41;;;;;;;27.47;13.33;;;;;;;21.15;70.39;99733.06;5143978;27;20288;-64
2022/09/30 03:09:26;;;;;;;;;;;;;;;21.18;69.75;99719.53;5094742;27;20330;-64
2022/09/30 03:12:26;;;;;;;34.77;16.57;;;;;;;21.42;69.87;99730.31;5091765;27;19915;-63
2022/09/30 03:15:30;;;;;;;64.60;29.33;;;;;;;21.57;68.90;99728.38;5144252;27;20289;-66
2022/09/30 03:18:46;;;;;;;51.88;31.38;;;;;;;21.71;68.64;99725.59;5144504;27;20269;-64
2022/09/30 03:21:57;;;;;;;36.80;18.73;;;;;;;21.80;68.14;99714.31;5144035;27;20043;-65
2022/09/30 03:28:35;;;;;;;27.03;15.00;;;;;;;21.96;64.36;99709.56;5142953;27;20293;-63
2022/09/30 03:31:26;;;;;;;32.47;14.80;;;;;;;21.89;64.04;99710.13;5141763;27;20293;-64
2022/09/30 03:34:12;;;;;;;24.33;14.67;;;;;;;21.92;64.86;99697.47;5143401;27;20577;-63
2022/09/30 03:37:08;;;;;;;27.57;14.07;;;;;;;21.93;64.16;99715.09;5143715;27;20302;-63
2022/09/30 03:39:56;;;;;;;30.35;15.23;;;;;;;21.93;64.28;99715.09;5142544;27;20277;-64
2022/09/30 03:42:42;;;;;;;23.13;13.87;;;;;;;21.88;63.68;99716.41;5142294;27;20257;-64
2022/09/30 03:45:26;;;;;;;23.60;14.10;;;;;;;21.89;63.78;99718.09;5143110;27;20410;-63
2022/09/30 03:48:17;;;;;;;21.60;13.47;;;;;;;22.04;63.32;99721.47;5143329;27;20308;-65
2022/09/30 03:51:12;;;;;;;28.63;13.40;;;;;;;22.06;62.27;99719.53;5142879;27;20301;-63
2022/09/30 03:53:59;;;;;;;27.33;13.57;;;;;;;22.14;62.63;99722.47;5143298;27;20279;-64
2022/09/30 03:56:51;;;;;;;;;;;;;;;22.21;62.48;99729.09;5143764;27;20291;-66
2022/09/30 03:59:38;;;;;;;20.23;12.53;;;;;;;22.33;63.08;99727.34;5143448;27;19919;-63
2022/09/30 04:02:15;;;;;;;29.63;14.23;;;;;;;22.48;63.23;99741.34;5097921;27;20292;-62
2022/09/30 04:04:52;;;;;;;26.33;14.93;;;;;;;22.59;63.05;99738.75;5142627;27;20331;-66
2022/09/30 04:07:33;;;;;;;26.77;14.37;;;;;;;22.55;62.57;99734.59;5140343;27;20289;-64
2022/09/30 04:10:11;;;;;;;25.73;13.30;;;;;;;22.45;60.82;99730.94;5143257;27;20423;-63
2022/09/30 04:13:00;;;;;;;21.03;12.97;;;;;;;22.49;61.01;99737.69;5109707;27;20303;-63
2022/09/30 04:15:43;;;;;;;20.00;12.80;;;;;;;22.54;61.43;99730.22;5143485;27;20415;-63
2022/09/30 04:18:26;;;;;;;19.63;12.13;;;;;;;22.53;60.15;99728.53;5142908;27;20353;-63
2022/09/30 04:24:08;;;;;;;24.53;12.37;;;;;;;22.60;60.61;99745.75;5142917;27;20281;-65
2022/09/30 04:26:49;;;;;;;33.50;12.87;;;;;;;22.58;59.67;99731.69;5105268;27;20059;-63
2022/09/30 04:29:33;;;;;;;30.63;12.30;;;;;;;22.59;59.56;99733.41;5142904;27;20050;-63
2022/09/30 04:32:17;;;;;;;20.47;11.83;;;;;;;22.54;59.25;99735.53;5141894;27;20281;-65
2022/09/30 04:35:04;;;;;;;27.57;12.43;;;;;;;22.51;60.12;99746.44;5142606;27;20057;-63
2022/09/30 04:37:46;;;;;;;21.97;12.37;;;;;;;22.45;59.67;99736.25;5143257;27;20047;-66
2022/09/30 04:40:32;;;;;;;31.53;12.30;;;;;;;22.37;58.48;99735.00;5141319;27;20300;-63
2022/09/30 04:43:10;;;;;;;20.63;12.40;;;;;;;22.37;60.04;99750.97;5142838;27;20276;-63
2022/09/30 04:46:00;;;;;;;29.43;12.73;;;;;;;22.39;59.46;99758.84;5141715;27;20308;-63
2022/09/30 04:48:51;;;;;;;73.83;15.47;;;;;;;22.36;60.24;99754.56;5142835;27;20296;-63
2022/09/30 04:51:44;;;;;;;25.70;12.13;;;;;;;22.33;59.97;99760.13;5107043;27;20080;-63
2022/09/30 04:54:34;;;;;;;24.57;13.67;;;;;;;22.23;60.11;99751.13;5140718;27;20289;-64
2022/09/30 04:57:28;;;;;;;38.20;13.37;;;;;;;22.20;60.21;99758.50;5141748;27;20315;-65
2022/09/30 05:00:09;;;;;;;26.03;12.80;;;;;;;22.06;59.85;99764.78;5142451;27;20315;-64
2022/09/30 05:02:56;;;;;;;27.70;12.23;;;;;;;21.93;59.27;99768.31;5142231;27;20576;-65
2022/09/30 05:05:48;;;;;;;46.57;14.97;;;;;;;21.85;60.44;99759.19;5142354;27;20276;-65
2022/09/30 05:08:33;;;;;;;51.43;14.37;;;;;;;21.76;60.38;99750.03;5142050;27;20330;-62
2022/09/30 05:11:29;;;;;;;37.73;12.97;;;;;;;21.71;60.83;99746.84;5142102;27;20289;-64
2022/09/30 05:14:16;;;;;;;30.70;13.50;;;;;;;21.80;61.38;99751.53;5142460;27;20296;-63
2022/09/30 05:16:55;;;;;;;32.10;12.80;;;;;;;21.84;60.23;99758.34;5141684;27;20285;-64
2022/09/30 05:19:34;;;;;;;33.60;14.17;;;;;;;21.82;60.92;99757.59;5142250;27;20297;-67
2022/09/30 05:25:08;;;;;;;25.47;12.43;;;;;;;21.77;59.91;99773.03;5141464;28;20613;-64
2022/09/30 05:28:03;;;;;;;39.87;14.20;;;;;;;21.65;60.59;99763.25;5141995;28;20281;-66
2022/09/30 05:30:58;;;;;;;73.97;14.87;;;;;;;21.22;61.06;99707.75;5140888;28;20462;-65
2022/09/30 05:33:41;;;;;;;32.72;14.15;;;;;;;21.54;61.38;99756.00;5141668;28;20281;-65
2022/09/30 05:36:29;;;;;;;106.40;17.67;;;;;;;21.69;61.44;99786.88;5141464;28;20122;-63
2022/09/30 05:39:19;;;;;;;26.10;12.33;;;;;;;21.65;61.73;99795.16;5119167;28;20296;-63
2022/09/30 05:41:55;;;;;;;35.20;14.20;;;;;;;21.57;61.04;99793.03;5141850;28;20277;-64
2022/09/30 05:44:38;;;;;;;96.83;17.03;;;;;;;21.48;61.47;99783.88;5141575;28;20292;-65
2022/09/30 05:47:19;;;;;;;48.60;14.43;;;;;;;21.54;62.40;99799.44;5141342;28;21269;-63
2022/09/30 05:50:04;;;;;;;94.23;16.83;;;;;;;21.54;62.56;99793.22;5140114;28;20311;-63
2022/09/30 05:52:48;;;;;;;29.97;14.00;;;;;;;21.56;62.62;99803.78;5141053;28;20281;-63
2022/09/30 05:55:30;;;;;;;28.20;13.13;;;;;;;21.47;62.39;99808.78;5141086;28;20590;-64
2022/09/30 05:58:18;;;;;;;37.20;14.07;;;;;;;21.45;63.13;99809.84;5108614;28;20461;-63
2022/09/30 06:01:22;;;;;;;59.40;14.60;;;;;;;21.41;62.81;99803.88;5141185;28;20269;-63
2022/09/30 06:04:43;;;;;;;27.37;13.13;;;;;;;21.38;62.88;99809.38;5140901;28;20320;-63
2022/09/30 06:07:41;;;;;;;59.38;15.57;;;;;;;21.28;63.14;99824.25;5098128;28;20345;-63
2022/09/30 06:10:23;;;;;;;53.37;14.80;;;;;;;21.24;63.59;99812.09;5054691;28;20121;-63
2022/09/30 06:13:04;;;;;;;42.37;15.47;;;;;;;21.11;63.53;99823.56;5098658;28;20835;-65
2022/09/30 06:15:51;;;;;;;39.13;14.63;;;;;;;20.88;63.67;99813.63;5098294;28;20317;-63
2022/09/30 06:18:35;;;;;;;25.80;14.03;;;;;;;20.83;64.71;99829.00;5098186;28;20340;-62
2022/09/30 06:21:34;;;;;;;33.97;14.70;;;;;;;20.79;65.37;99827.50;5098139;28;20325;-63
2022/09/30 06:24:15;;;;;;;26.33;14.10;;;;;;;20.72;65.83;99827.06;5103886;28;20282;-66
2022/09/30 06:26:52;;;;;;;85.97;17.55;;;;;;;20.74;65.22;99834.91;5140528;28;20420;-63
2022/09/30 06:29:25;;;;;;;30.57;14.20;;;;;;;20.79;64.89;99839.00;5140505;28;20083;-63
2022/09/30 06:32:27;;;;;;;29.87;13.97;;;;;;;20.37;65.37;99781.56;5143750;27;20798;-65
2022/09/30 06:35:05;;;;;;;39.97;13.80;;;;;;;20.74;65.47;99851.69;5143338;27;20301;-67
2022/09/30 06:37:53;;;;;;;30.33;14.13;;;;;;;20.66;64.37;99860.16;5103643;27;20388;-63
2022/09/30 06:40:37;;;;;;;111.15;18.30;;;;;;;20.55;64.96;99862.66;5143814;27;20839;-64
2022/09/30 06:43:17;;;;;;;33.73;14.13;;;;;;;20.49;65.18;99863.00;5144314;27;20055;-62
2022/09/30 06:45:59;;;;;;;29.33;13.93;;;;;;;20.42;65.67;99854.63;5142571;27;20284;-63
2022/09/30 06:48:56;;;;;;;36.77;13.70;;;;;;;20.44;66.04;99862.44;5145143;27;20284;-64
2022/09/30 06:51:46;;;;;;;107.10;18.27;;;;;;;20.36;65.95;99862.09;5144019;27;20277;-64
2022/09/30 06:54:38;;;;;;;24.87;13.30;;;;;;;20.24;66.18;99853.09;5144002;27;20277;-64
2022/09/30 06:57:23;;;;;;;26.03;13.60;;;;;;;20.18;66.79;99864.97;5121612;27;20356;-66
2022/09/30 07:00:07;;;;;;;32.22;14.50;;;;;;;20.10;66.09;99872.56;5144371;27;20285;-64
2022/09/30 07:03:08;;;;;;;27.77;14.70;;;;;;;19.82;65.92;99853.03;5134871;27;20059;-65
2022/09/30 07:06:21;;;;;;;32.40;15.40;;;;;;;19.70;66.19;99855.59;5144742;27;20346;-64
2022/09/30 07:09:07;;;;;;;34.67;15.47;;;;;;;19.77;66.59;99876.34;5144022;27;20596;-64
2022/09/30 07:11:52;;;;;;;32.37;14.60;;;;;;;19.69;67.99;99867.97;5141428;27;20296;-64
2022/09/30 07:14:36;;;;;;;48.13;15.17;;;;;;;19.74;68.29;99879.16;5143684;27;20502;-64
2022/09/30 07:17:18;;;;;;;33.17;16.30;;;;;;;19.62;68.86;99906.38;5143396;27;20281;-64
2022/09/30 07:20:01;;;;;;;101.73;19.20;;;;;;;19.56;68.29;99914.69;5140989;27;20281;-64
2022/09/30 07:22:39;;;;;;;38.47;15.10;;;;;;;19.44;68.02;99910.09;5141576;27;20814;-68
2022/09/30 07:25:31;;;;;;;28.93;13.63;;;;;;;19.27;66.54;99924.31;5103053;27;20289;-65
2022/09/30 07:28:12;;;;;;;44.77;15.20;;;;;;;19.22;66.67;99931.69;5140693;27;20316;-64
2022/09/30 07:30:55;;;;;;;72.43;16.57;;;;;;;19.13;66.95;99927.78;5143765;27;20313;-64
2022/09/30 07:36:42;;;;;;;27.03;14.73;;;;;;;18.90;67.35;99932.59;5140479;27;20281;-65
2022/09/30 07:39:26;;;;;;;58.43;16.40;;;;;;;18.77;67.93;99931.56;5143320;27;20558;-64
2022/09/30 07:42:14;;;;;;;32.40;15.73;;;;;;;18.71;68.58;99937.16;5143028;27;20308;-66
2022/09/30 07:44:57;;;;;;;;;;;;;;;18.62;68.71;99937.66;5066349;27;20356;-64
2022/09/30 07:47:36;;;;;;;31.60;15.47;;;;;;;18.27;69.11;99904.28;5144152;27;19950;-62
2022/09/30 07:50:20;;;;;;;52.73;16.53;;;;;;;18.38;69.46;99946.00;5143646;27;20354;-63
2022/09/30 07:52:55;;;;;;;41.00;16.65;;;;;;;18.29;69.78;99949.13;5143907;27;20349;-63
2022/09/30 07:58:29;;;;;;;45.87;16.27;;;;;;;18.09;70.62;99956.31;5083950;27;20051;-64
2022/09/30 08:01:17;;;;;;;39.87;14.90;;;;;;;17.89;71.08;99948.56;5143171;27;20292;-63
2022/09/30 08:04:16;;;;;;;25.97;15.23;;;;;;;17.85;71.45;99974.31;5143335;27;20283;-64
2022/09/30 08:07:09;;;;;;;32.40;15.27;;;;;;;17.73;71.80;99979.34;5142382;27;20292;-64
2022/09/30 08:09:49;;;;;;;45.50;15.77;;;;;;;17.69;71.96;99983.91;5142824;27;20314;-63
2022/09/30 08:12:39;;;;;;;38.45;15.20;;;;;;;17.58;72.74;99983.59;5107812;27;20292;-64
2022/09/30 08:15:19;;;;;;;33.80;15.43;;;;;;;17.45;73.09;99993.94;5134178;27;20051;-64
2022/09/30 08:18:10;;;;;;;33.20;14.77;;;;;;;17.27;72.94;99956.03;5142738;27;20289;-64
2022/09/30 08:20:56;;;;;;;39.53;15.07;;;;;;;17.35;73.23;99979.47;5143096;27;20277;-64
2022/09/30 08:23:43;;;;;;;43.67;15.40;;;;;;;17.27;73.57;99994.81;5141163;27;20050;-63
2022/09/30 08:26:35;;;;;;;44.08;16.85;;;;;;;17.17;73.96;99995.28;5141433;27;20320;-63
2022/09/30 08:29:22;;;;;;;34.60;14.93;;;;;;;17.09;74.30;99997.41;5107443;27;20043;-63
2022/09/30 08:32:35;;;;;;;42.87;15.67;;;;;;;16.96;74.67;100004.19;5140309;27;20073;-63
2022/09/30 08:35:19;;;;;;;29.33;15.57;;;;;;;16.86;75.23;99987.94;5138701;27;20285;-63
2022/09/30 08:38:05;;;;;;;44.17;15.87;;;;;;;16.84;75.43;99997.69;5140299;27;20293;-64
2022/09/30 08:41:08;;;;;;;;;;;;;;;16.80;75.50;100010.19;5098931;27;20288;-63
2022/09/30 08:44:22;;;;;;;42.07;17.50;;;;;;;16.72;76.06;100012.25;5141489;27;19923;-65
2022/09/30 08:47:06;;;;;;;34.77;15.77;;;;;;;16.64;76.18;100019.69;5093875;27;20276;-64
2022/09/30 08:56:34;;;;;;;40.03;15.93;;;;;;;16.52;77.50;100043.97;5142064;27;20307;-64
2022/09/30 08:59:29;;;;;;;40.30;16.00;;;;;;;16.46;77.28;100041.63;5141528;27;20299;-64
2022/09/30 09:02:18;;;;;;;39.50;15.83;;;;;;;16.41;77.60;100047.09;5108787;27;20287;-65
2022/09/30 09:05:14;;;;;;;39.70;16.83;;;;;;;16.31;77.77;100037.88;5141691;27;20293;-67
2022/09/30 09:08:12;;;;;;;49.53;18.03;;;;;;;16.26;78.61;100043.34;5140046;27;20390;-64
2022/09/30 09:10:49;;;;;;;;;;;;;;;16.23;79.66;100051.38;5142547;27;20309;-63
2022/09/30 09:13:57;;;;;;;35.53;16.50;;;;;;;16.06;79.71;100044.19;5141477;27;20178;-65
2022/09/30 09:16:39;;;;;;;36.07;16.77;;;;;;;16.20;79.60;100082.28;5141754;27;20297;-63
2022/09/30 09:19:40;;;;;;;35.73;16.80;;;;;;;16.16;79.70;100092.13;5141625;27;20284;-64
2022/09/30 09:22:21;;;;;;;48.53;17.67;;;;;;;15.84;80.14;100049.50;5113017;27;20356;-64
2022/09/30 09:25:01;;;;;;;39.07;17.27;;;;;;;15.95;80.60;100094.72;5141466;27;20661;-63
2022/09/30 09:27:50;;;;;;;56.40;17.93;;;;;;;15.80;80.54;100079.56;5140741;28;20319;-64
2022/09/30 09:30:26;;;;;;;61.50;18.27;;;;;;;15.80;80.97;100095.38;5141469;28;20397;-64
2022/09/30 09:33:16;;;;;;;80.43;32.27;;;;;;;15.73;81.16;100086.00;5140950;28;20504;-64
2022/09/30 09:36:03;;;;;;;82.13;34.10;;;;;;;15.74;81.62;100100.84;5141599;28;20368;-64
2022/09/30 09:39:10;;;;;;;50.70;19.40;;;;;;;15.65;82.06;100101.19;5141185;28;20324;-64
2022/09/30 09:42:01;;;;;;;45.33;18.13;;;;;;;15.64;82.59;100107.38;5141251;28;20364;-63
2022/09/30 09:44:59;;;;;;;37.33;17.13;;;;;;;15.56;82.71;100101.56;5141732;28;20415;-64
2022/09/30 09:47:42;;;;;;;38.33;18.23;;;;;;;15.36;82.88;100095.31;5141479;28;20289;-64
2022/09/30 09:50:43;;;;;;;47.50;18.10;;;;;;;15.42;83.08;100110.84;5138228;28;20293;-64
2022/09/30 09:53:57;;;;;;;63.97;19.43;;;;;;;15.34;83.41;100110.28;5111919;28;20312;-64
2022/09/30 09:56:53;;;;;;;34.50;17.40;;;;;;;15.25;84.01;100114.16;5141895;28;20277;-64
2022/09/30 09:59:31;;;;;;;34.83;17.87;;;;;;;15.24;84.20;100119.47;5141610;28;20289;-64
2022/09/30 10:02:32;;;;;;;50.00;18.70;;;;;;;14.88;84.39;100072.56;5141734;28;20326;-63
2022/09/30 10:05:28;;;;;;;152.97;22.70;;;;;;;15.14;84.29;100131.25;5109461;28;20935;-64
2022/09/30 10:08:21;;;;;;;53.50;18.73;;;;;;;15.03;84.34;100126.41;5145847;27;20285;-64
2022/09/30 10:11:23;;;;;;;39.17;17.87;;;;;;;14.94;84.75;100134.63;5145194;27;20589;-63
2022/09/30 10:14:19;;;;;;;64.80;17.10;;;;;;;14.98;85.01;100142.34;5145909;27;20366;-63
2022/09/30 10:17:13;;;;;;;49.37;16.57;;;;;;;14.95;85.04;100137.22;5144204;27;20370;-64
2022/09/30 10:19:57;;;;;;;32.20;15.87;;;;;;;14.97;84.97;100156.41;5145189;27;20334;-64
2022/09/30 10:22:40;;;;;;;36.53;15.60;;;;;;;15.03;84.57;100156.19;5144823;27;20353;-64
2022/09/30 10:25:29;;;;;;;36.57;16.57;;;;;;;15.02;84.84;100165.00;5140693;27;20299;-64
2022/09/30 10:28:08;;;;;;;39.87;16.60;;;;;;;15.04;85.14;100168.44;5143451;27;20296;-63
2022/09/30 10:30:56;;;;;;;43.40;18.23;;;;;;;15.04;85.32;100173.69;5103051;27;20292;-63
2022/09/30 10:33:37;;;;;;;39.97;18.37;;;;;;;14.85;85.26;100141.06;5143102;27;20621;-63
2022/09/30 10:36:35;;;;;;;43.73;18.60;;;;;;;14.95;85.48;100158.25;5143935;27;20375;-63
2022/09/30 10:39:29;;;;;;;41.20;17.93;;;;;;;14.96;86.06;100175.75;5143792;27;20357;-64
2022/09/30 10:42:07;;;;;;;43.70;16.70;;;;;;;14.96;86.25;100181.00;5145085;27;20750;-64
2022/09/30 10:45:02;;;;;;;50.13;17.90;;;;;;;14.88;86.05;100172.53;5144798;27;20847;-63
2022/09/30 10:47:52;;;;;;;34.47;16.93;;;;;;;14.90;85.72;100154.91;5144057;27;20578;-64
2022/09/30 10:50:33;;;;;;;37.30;15.77;;;;;;;14.84;85.75;100157.75;5144331;27;20340;-64
2022/09/30 10:53:20;;;;;;;53.67;19.50;;;;;;;14.77;85.69;100153.63;5144617;27;20570;-64
2022/09/30 10:56:19;;;;;;;48.23;18.07;;;;;;;14.92;86.12;100184.66;5144247;27;20401;-64
2022/09/30 10:59:18;;;;;;;36.47;16.87;;;;;;;14.29;86.18;100109.69;5114374;27;20285;-64
2022/09/30 11:02:09;;;;;;;39.73;17.37;;;;;;;14.90;86.16;100202.25;5144603;27;20325;-63
2022/09/30 11:04:59;;;;;;;41.63;16.97;;;;;;;14.63;86.43;100147.09;5144602;27;20348;-64
2022/09/30 11:07:48;;;;;;;37.63;16.97;;;;;;;14.91;86.74;100177.69;5142657;27;20292;-65
2022/09/30 11:10:51;;;;;;;32.93;15.43;;;;;;;14.90;86.86;100202.25;5143582;27;20330;-64
2022/09/30 11:17:15;;;;;;;43.58;16.88;;;;;;;14.87;86.77;100207.63;5143705;27;20341;-63
2022/09/30 11:20:11;;;;;;;37.57;15.77;;;;;;;14.83;86.84;100192.88;5143263;27;20486;-64
2022/09/30 11:23:05;;;;;;;34.67;16.85;;;;;;;14.81;86.54;100176.28;5144160;27;20292;-63
2022/09/30 11:25:52;;;;;;;30.43;15.17;;;;;;;14.89;86.41;100184.75;5142890;27;20155;-63
2022/09/30 11:28:46;;;;;;;39.53;16.00;;;;;;;14.81;86.82;100189.44;5143117;27;20790;-63
2022/09/30 11:35:00;;;;;;;32.30;15.50;;;;;;;14.56;87.03;100181.53;5143116;27;20354;-63
2022/09/30 11:38:04;;;;;;;37.43;16.57;;;;;;;14.40;87.01;100191.66;5143694;27;20454;-63
2022/09/30 11:40:59;;;;;;;34.07;17.83;;;;;;;14.23;87.67;100206.25;5143517;27;20277;-62
2022/09/30 11:44:05;;;;;;;39.07;18.83;;;;;;;14.03;88.63;100199.00;5144075;27;20427;-62
2022/09/30 11:47:21;;;;;;;32.60;18.43;;;;;;;13.81;89.39;100204.03;5143767;27;20293;-63
2022/09/30 11:50:23;;;;;;;36.13;18.15;;;;;;;13.57;90.20;100173.28;5143795;27;20606;-63
2022/09/30 11:53:23;;;;;;;36.00;19.40;;;;;;;13.75;91.15;100211.25;5139029;27;20081;-63
2022/09/30 11:56:23;;;;;;;36.30;17.83;;;;;;;13.72;91.86;100217.44;5142843;27;20352;-63
2022/09/30 11:59:19;;;;;;;37.13;18.52;;;;;;;13.40;92.04;100149.31;5091538;27;20314;-63
2022/09/30 12:02:14;;;;;;;40.90;18.95;;;;;;;13.76;92.32;100219.09;5139660;27;20552;-62
2022/09/30 12:04:55;;;;;;;46.45;19.92;;;;;;;13.69;92.61;100209.66;5142571;27;20444;-63
2022/09/30 12:10:56;;;;;;;35.38;17.95;;;;;;;13.73;92.69;100227.06;5139432;27;20051;-63
2022/09/30 12:16:40;;;;;;;32.60;17.65;;;;;;;13.49;92.37;100238.28;5079638;28;20071;-63
2022/09/30 12:19:21;;;;;;;39.78;18.50;;;;;;;13.42;92.41;100236.72;5079811;28;20133;-63
2022/09/30 12:22:04;;;;;;;38.22;18.52;;;;;;;13.31;92.37;100240.53;5077320;28;20650;-64
2022/09/30 12:24:51;;;;;;;79.82;19.35;;;;;;;13.25;92.25;100245.88;5046063;28;20048;-63
2022/09/30 12:27:34;;;;;;;46.35;18.20;;;;;;;13.13;92.04;100259.38;5078909;28;20083;-63
2022/09/30 12:30:22;;;;;;;36.95;18.20;;;;;;;12.89;92.64;100253.00;4992091;28;20392;-63
2022/09/30 12:33:31;;;;;;;43.78;18.98;;;;;;;12.67;93.75;100261.41;5056527;28;20046;-63
2022/09/30 12:36:42;;;;;;;35.00;18.00;;;;;;;12.46;94.63;100240.97;5079427;28;20044;-62
2022/09/30 12:40:00;;;;;;;34.30;18.70;;;;;;;12.49;95.51;100249.63;5077411;28;20059;-62
2022/09/30 12:43:23;;;;;;;32.55;18.17;;;;;;;12.42;95.74;100242.81;4984913;28;20052;-63
2022/09/30 12:46:34;;;;;;;33.63;19.15;;;;;;;12.43;96.57;100244.53;4984623;28;20061;-63
2022/09/30 12:49:27;;;;;;;45.00;18.52;;;;;;;12.39;96.04;100248.13;4968428;28;20084;-63
2022/09/30 12:52:19;;;;;;;43.65;19.92;;;;;;;12.31;96.62;100239.59;5028562;28;20045;-62
2022/09/30 12:55:09;;;;;;;39.53;18.92;;;;;;;12.34;96.90;100229.03;5050276;28;20065;-63
2022/09/30 12:57:48;;;;;;;40.97;18.83;;;;;;;12.39;96.79;100228.94;5006072;28;20431;-62
2022/09/30 13:00:36;;;;;;;34.90;17.25;;;;;;;12.39;96.27;100237.66;5024128;28;20063;-62
2022/09/30 13:03:55;;;;;;;30.25;17.25;;;;;;;12.39;95.23;100237.66;5048610;28;20044;-63
2022/09/30 13:06:50;;;;;;;33.22;17.45;;;;;;;12.34;94.61;100233.41;5048893;28;20049;-63
2022/09/30 13:09:40;;;;;;;39.90;18.15;;;;;;;12.32;94.06;100230.81;5016841;28;20117;-63
2022/09/30 13:12:33;;;;;;;32.28;19.00;;;;;;;12.25;93.95;100244.97;5055944;28;20143;-64
2022/09/30 13:15:43;;;;;;;51.67;27.55;;;;;;;11.40;94.05;100138.63;5120741;28;20516;-61
2022/09/30 13:22:51;;;;;;;45.58;25.70;;;;;;;11.93;94.85;100254.44;5115821;28;20114;-63
2022/09/30 13:25:28;;;;;;;36.17;21.65;;;;;;;11.91;94.46;100251.00;5106185;28;20043;-63
2022/09/30 13:32:09;;;;;;;38.80;19.60;;;;;;;11.85;94.10;100251.06;5142010;28;20107;-64
2022/09/30 13:35:00;;;;;;;38.22;20.45;;;;;;;11.77;94.16;100264.31;5141451;28;20059;-63
2022/09/30 13:37:40;;;;;;;32.30;18.92;;;;;;;11.70;94.61;100264.50;5138877;28;20060;-63
2022/09/30 13:40:34;;;;;;;38.72;18.45;;;;;;;11.62;94.96;100260.28;5142505;27;20374;-63
2022/09/30 13:43:38;;;;;;;40.20;17.80;;;;;;;11.44;95.49;100260.66;5145377;27;20429;-63
2022/09/30 13:46:34;;;;;;;35.88;18.20;;;;;;;11.39;96.60;100267.75;5126591;27;20067;-63
2022/09/30 13:49:17;;;;;;;36.90;18.13;;;;;;;11.34;97.24;100264.34;5086137;28;20043;-63
2022/09/30 13:51:56;;;;;;;35.10;18.20;;;;;;;11.38;97.48;100264.28;5115440;28;20051;-63